sensor_id;sensor_type;location;lat;lon;timestamp;pressure;altitude;pressure_sealevel;temperature;humidity
14273;BME280;7220;49.450;11.052;2023-07-20T00:02:51;97845.75;;;18.75;100.00
14273;BME280;7220;49.450;11.052;2023-07-20T00:06:51;97852.56;;;18.80;100.00
14273;BME280;7220;49.450;11.052;2023-07-20T00:10:52;97852.84;;;18.76;100.00
14273;BME280;7220;49.450;11.052;2023-07-20T00:14:52;97842.94;;;18.67;100.00
14273;BME280;7220;49.450;11.052;2023-07-20T00:18:53;97836.56;;;18.68;100.00
14273;BME280;7220;49.450;11.052;2023-07-20T00:22:53;97836.44;;;18.70;100.00
14273;BME280;7220;49.450;11.052;2023-07-20T00:26:55;97837.13;;;18.72;100.00
14273;BME280;7220;49.450;11.052;2023-07-20T00:30:55;97837.28;;;18.70;100.00
14273;BME280;7220;49.450;11.052;2023-07-20T00:34:55;97822.97;;;18.70;100.00
14273;BME280;7220;49.450;11.052;2023-07-20T00:38:56;97807.94;;;18.67;100.00
14273;BME280;7220;49.450;11.052;2023-07-20T00:42:56;97814.91;;;18.60;100.00
14273;BME280;7220;49.450;11.052;2023-07-20T00:46:57;97825.97;;;18.57;100.00
14273;BME280;7220;49.450;11.052;2023-07-20T00:51:01;97814.63;;;18.53;100.00
14273;BME280;7220;49.450;11.052;2023-07-20T00:55:02;97820.13;;;18.52;100.00
14273;BME280;7220;49.450;11.052;2023-07-20T00:59:03;97829.22;;;18.51;100.00
14273;BME280;7220;49.450;11.052;2023-07-20T01:03:03;97819.44;;;18.50;100.00
14273;BME280;7220;49.450;11.052;2023-07-20T01:15:56;97819.44;;;18.59;100.00
14273;BME280;7220;49.450;11.052;2023-07-20T01:19:57;97817.19;;;18.55;100.00
14273;BME280;7220;49.450;11.052;2023-07-20T01:28:49;97830.63;;;18.45;100.00
14273;BME280;7220;49.450;11.052;2023-07-20T01:32:57;97817.31;;;18.43;100.00
14273;BME280;7220;49.450;11.052;2023-07-20T01:36:59;97817.31;;;18.43;100.00
14273;BME280;7220;49.450;11.052;2023-07-20T01:41:01;97804.88;;;18.42;100.00
14273;BME280;7220;49.450;11.052;2023-07-20T01:45:02;97811.50;;;18.38;100.00
14273;BME280;7220;49.450;11.052;2023-07-20T01:49:02;97833.75;;;18.40;100.00
14273;BME280;7220;49.450;11.052;2023-07-20T01:53:02;97840.00;;;18.51;100.00
14273;BME280;7220;49.450;11.052;2023-07-20T01:57:03;97844.50;;;18.40;100.00
14273;BME280;7220;49.450;11.052;2023-07-20T02:01:04;97842.81;;;18.39;100.00
14273;BME280;7220;49.450;11.052;2023-07-20T02:05:04;97856.97;;;18.51;100.00
14273;BME280;7220;49.450;11.052;2023-07-20T02:09:05;97856.41;;;18.48;100.00
14273;BME280;7220;49.450;11.052;2023-07-20T02:13:06;97858.38;;;18.55;100.00
14273;BME280;7220;49.450;11.052;2023-07-20T02:17:06;97854.56;;;18.58;100.00
14273;BME280;7220;49.450;11.052;2023-07-20T02:21:06;97864.78;;;18.54;100.00
14273;BME280;7220;49.450;11.052;2023-07-20T02:25:07;97864.91;;;18.43;100.00
14273;BME280;7220;49.450;11.052;2023-07-20T02:29:08;97876.50;;;18.43;100.00
14273;BME280;7220;49.450;11.052;2023-07-20T02:33:08;97882.19;;;18.40;100.00
14273;BME280;7220;49.450;11.052;2023-07-20T02:37:08;97865.47;;;18.37;100.00
14273;BME280;7220;49.450;11.052;2023-07-20T02:41:09;97876.78;;;18.40;100.00
14273;BME280;7220;49.450;11.052;2023-07-20T02:45:09;97865.72;;;18.43;100.00
14273;BME280;7220;49.450;11.052;2023-07-20T02:49:09;97875.38;;;18.46;100.00
14273;BME280;7220;49.450;11.052;2023-07-20T02:53:10;97878.34;;;18.43;100.00
14273;BME280;7220;49.450;11.052;2023-07-20T02:57:10;97881.88;;;18.43;100.00
14273;BME280;7220;49.450;11.052;2023-07-20T03:01:11;97890.97;;;18.42;100.00
14273;BME280;7220;49.450;11.052;2023-07-20T03:05:13;97881.03;;;18.43;100.00
14273;BME280;7220;49.450;11.052;2023-07-20T03:09:13;97885.69;;;18.41;100.00
14273;BME280;7220;49.450;11.052;2023-07-20T03:13:13;97886.84;;;18.38;100.00
14273;BME280;7220;49.450;11.052;2023-07-20T03:17:14;97893.78;;;18.31;100.00
14273;BME280;7220;49.450;11.052;2023-07-20T03:21:14;97896.31;;;18.23;100.00
14273;BME280;7220;49.450;11.052;2023-07-20T03:25:15;97898.69;;;18.16;100.00
14273;BME280;7220;49.450;11.052;2023-07-20T03:29:15;97905.03;;;18.15;100.00
14273;BME280;7220;49.450;11.052;2023-07-20T03:33:16;97912.69;;;18.10;100.00
14273;BME280;7220;49.450;11.052;2023-07-20T03:37:16;97911.69;;;18.01;100.00
14273;BME280;7220;49.450;11.052;2023-07-20T03:41:16;97920.00;;;17.98;100.00
14273;BME280;7220;49.450;11.052;2023-07-20T03:45:17;97914.63;;;17.98;100.00
14273;BME280;7220;49.450;11.052;2023-07-20T03:49:17;97917.50;;;18.06;100.00
14273;BME280;7220;49.450;11.052;2023-07-20T03:53:18;97916.66;;;18.06;100.00
14273;BME280;7220;49.450;11.052;2023-07-20T03:57:18;97920.44;;;18.03;100.00
14273;BME280;7220;49.450;11.052;2023-07-20T04:01:19;97919.19;;;18.07;100.00
14273;BME280;7220;49.450;11.052;2023-07-20T04:05:19;97919.19;;;18.07;100.00
14273;BME280;7220;49.450;11.052;2023-07-20T04:09:20;97932.63;;;18.07;100.00
14273;BME280;7220;49.450;11.052;2023-07-20T04:13:20;97926.69;;;18.04;100.00
14273;BME280;7220;49.450;11.052;2023-07-20T04:17:20;97939.53;;;18.00;100.00
14273;BME280;7220;49.450;11.052;2023-07-20T04:21:21;97935.31;;;17.97;100.00
14273;BME280;7220;49.450;11.052;2023-07-20T04:25:21;97945.31;;;17.95;100.00
14273;BME280;7220;49.450;11.052;2023-07-20T04:29:21;97945.91;;;17.99;100.00
14273;BME280;7220;49.450;11.052;2023-07-20T04:33:22;97955.69;;;18.00;100.00
14273;BME280;7220;49.450;11.052;2023-07-20T04:37:22;97949.19;;;18.03;100.00
14273;BME280;7220;49.450;11.052;2023-07-20T04:41:22;97956.53;;;18.01;100.00
14273;BME280;7220;49.450;11.052;2023-07-20T04:45:23;97957.09;;;18.04;100.00
14273;BME280;7220;49.450;11.052;2023-07-20T04:49:24;97958.41;;;18.10;100.00
14273;BME280;7220;49.450;11.052;2023-07-20T04:53:24;97960.81;;;18.13;100.00
14273;BME280;7220;49.450;11.052;2023-07-20T04:57:25;97961.50;;;18.15;100.00
14273;BME280;7220;49.450;11.052;2023-07-20T05:01:25;97965.34;;;18.12;100.00
14273;BME280;7220;49.450;11.052;2023-07-20T05:05:26;97961.66;;;18.13;100.00
14273;BME280;7220;49.450;11.052;2023-07-20T05:09:27;97967.91;;;18.14;100.00
14273;BME280;7220;49.450;11.052;2023-07-20T05:13:27;97967.00;;;18.04;100.00
14273;BME280;7220;49.450;11.052;2023-07-20T05:17:27;97974.50;;;18.00;100.00
14273;BME280;7220;49.450;11.052;2023-07-20T05:21:28;97973.22;;;18.04;100.00
14273;BME280;7220;49.450;11.052;2023-07-20T05:25:28;97964.09;;;18.17;100.00
14273;BME280;7220;49.450;11.052;2023-07-20T05:29:28;97976.91;;;18.03;100.00
14273;BME280;7220;49.450;11.052;2023-07-20T05:33:28;97976.25;;;17.90;100.00
14273;BME280;7220;49.450;11.052;2023-07-20T05:37:29;97976.50;;;17.87;100.00
14273;BME280;7220;49.450;11.052;2023-07-20T05:41:29;97974.69;;;17.87;100.00
14273;BME280;7220;49.450;11.052;2023-07-20T05:45:29;97977.53;;;17.86;100.00
14273;BME280;7220;49.450;11.052;2023-07-20T05:49:30;97984.31;;;17.90;100.00
14273;BME280;7220;49.450;11.052;2023-07-20T05:53:30;97985.41;;;17.99;100.00
14273;BME280;7220;49.450;11.052;2023-07-20T05:57:32;97984.44;;;18.09;100.00
14273;BME280;7220;49.450;11.052;2023-07-20T06:01:32;97986.44;;;18.17;100.00
14273;BME280;7220;49.450;11.052;2023-07-20T06:05:32;97981.94;;;18.18;100.00
14273;BME280;7220;49.450;11.052;2023-07-20T06:09:33;97983.34;;;18.22;97.79
14273;BME280;7220;49.450;11.052;2023-07-20T06:13:33;97992.00;;;18.35;97.55
14273;BME280;7220;49.450;11.052;2023-07-20T06:17:34;97985.06;;;18.23;96.33
14273;BME280;7220;49.450;11.052;2023-07-20T06:21:34;97984.88;;;18.15;96.50
14273;BME280;7220;49.450;11.052;2023-07-20T06:25:34;97992.53;;;18.19;96.00
14273;BME280;7220;49.450;11.052;2023-07-20T06:29:35;97990.16;;;18.26;94.90
14273;BME280;7220;49.450;11.052;2023-07-20T06:33:35;97987.91;;;18.31;93.19
14273;BME280;7220;49.450;11.052;2023-07-20T06:37:35;97989.78;;;18.40;93.14
14273;BME280;7220;49.450;11.052;2023-07-20T06:41:36;97998.03;;;18.49;92.83
14273;BME280;7220;49.450;11.052;2023-07-20T06:45:36;97985.00;;;18.54;92.01
14273;BME280;7220;49.450;11.052;2023-07-20T06:49:36;97991.53;;;18.61;91.88
14273;BME280;7220;49.450;11.052;2023-07-20T06:53:36;97983.59;;;18.69;90.95
14273;BME280;7220;49.450;11.052;2023-07-20T06:57:37;97985.03;;;18.73;90.59
14273;BME280;7220;49.450;11.052;2023-07-20T07:01:37;97980.22;;;18.87;89.68
14273;BME280;7220;49.450;11.052;2023-07-20T07:05:39;97982.53;;;19.01;87.36
14273;BME280;7220;49.450;11.052;2023-07-20T07:09:39;97974.19;;;19.14;85.99
14273;BME280;7220;49.450;11.052;2023-07-20T07:13:39;97986.78;;;19.33;84.54
14273;BME280;7220;49.450;11.052;2023-07-20T07:17:40;97982.78;;;19.47;81.29
14273;BME280;7220;49.450;11.052;2023-07-20T07:21:40;97989.72;;;19.60;79.75
14273;BME280;7220;49.450;11.052;2023-07-20T07:25:41;97981.03;;;19.76;77.35
14273;BME280;7220;49.450;11.052;2023-07-20T07:29:42;97985.28;;;19.88;76.74
14273;BME280;7220;49.450;11.052;2023-07-20T07:33:46;97989.94;;;19.96;75.27
14273;BME280;7220;49.450;11.052;2023-07-20T07:37:46;97984.00;;;19.92;74.66
14273;BME280;7220;49.450;11.052;2023-07-20T07:41:47;97973.44;;;20.09;72.95
14273;BME280;7220;49.450;11.052;2023-07-20T07:45:47;97982.56;;;20.26;72.73
14273;BME280;7220;49.450;11.052;2023-07-20T07:49:47;97991.16;;;20.39;71.60
14273;BME280;7220;49.450;11.052;2023-07-20T07:53:48;97989.03;;;20.43;69.88
14273;BME280;7220;49.450;11.052;2023-07-20T07:57:49;97988.44;;;20.49;69.35
14273;BME280;7220;49.450;11.052;2023-07-20T08:01:49;97990.91;;;20.60;68.59
14273;BME280;7220;49.450;11.052;2023-07-20T08:05:50;97980.09;;;20.60;67.05
14273;BME280;7220;49.450;11.052;2023-07-20T08:09:50;97985.50;;;20.60;65.70
14273;BME280;7220;49.450;11.052;2023-07-20T08:13:50;97986.31;;;20.71;65.38
14273;BME280;7220;49.450;11.052;2023-07-20T08:17:51;97997.31;;;20.87;64.11
14273;BME280;7220;49.450;11.052;2023-07-20T08:21:52;97993.38;;;20.82;64.35
14273;BME280;7220;49.450;11.052;2023-07-20T08:25:52;97981.75;;;20.71;64.31
14273;BME280;7220;49.450;11.052;2023-07-20T08:29:53;97993.81;;;20.77;63.54
14273;BME280;7220;49.450;11.052;2023-07-20T08:33:53;97988.22;;;20.88;62.87
14273;BME280;7220;49.450;11.052;2023-07-20T08:37:53;97999.94;;;20.79;62.62
14273;BME280;7220;49.450;11.052;2023-07-20T08:41:55;98001.31;;;20.83;62.02
14273;BME280;7220;49.450;11.052;2023-07-20T08:45:56;97996.16;;;21.08;60.24
14273;BME280;7220;49.450;11.052;2023-07-20T08:49:57;97995.56;;;21.14;59.23
14273;BME280;7220;49.450;11.052;2023-07-20T08:53:59;97988.75;;;21.10;58.00
14273;BME280;7220;49.450;11.052;2023-07-20T08:58:00;97984.81;;;21.22;57.95
14273;BME280;7220;49.450;11.052;2023-07-20T09:02:02;97988.66;;;21.38;57.66
14273;BME280;7220;49.450;11.052;2023-07-20T09:06:02;97996.50;;;21.49;55.42
14273;BME280;7220;49.450;11.052;2023-07-20T09:10:03;97990.63;;;21.54;55.58
14273;BME280;7220;49.450;11.052;2023-07-20T09:14:07;97986.94;;;21.55;53.12
14273;BME280;7220;49.450;11.052;2023-07-20T09:18:08;97992.66;;;21.70;53.58
14273;BME280;7220;49.450;11.052;2023-07-20T09:22:08;97981.56;;;21.81;53.89
14273;BME280;7220;49.450;11.052;2023-07-20T09:26:14;97987.22;;;21.96;52.98
14273;BME280;7220;49.450;11.052;2023-07-20T09:30:16;97989.84;;;22.14;52.02
14273;BME280;7220;49.450;11.052;2023-07-20T09:34:17;97987.84;;;22.16;51.40
14273;BME280;7220;49.450;11.052;2023-07-20T09:38:17;97983.66;;;22.22;50.57
14273;BME280;7220;49.450;11.052;2023-07-20T09:42:17;97986.97;;;22.42;49.46
14273;BME280;7220;49.450;11.052;2023-07-20T09:46:18;97976.19;;;22.50;49.33
14273;BME280;7220;49.450;11.052;2023-07-20T09:50:23;97978.28;;;22.30;49.63
14273;BME280;7220;49.450;11.052;2023-07-20T09:54:24;97988.81;;;22.07;48.51
14273;BME280;7220;49.450;11.052;2023-07-20T09:58:28;97970.56;;;22.09;47.44
14273;BME280;7220;49.450;11.052;2023-07-20T10:02:33;97989.00;;;22.40;46.12
14273;BME280;7220;49.450;11.052;2023-07-20T10:06:34;97970.25;;;22.47;44.65
14273;BME280;7220;49.450;11.052;2023-07-20T10:10:36;97968.25;;;22.65;44.12
14273;BME280;7220;49.450;11.052;2023-07-20T10:14:41;97966.47;;;22.91;44.85
14273;BME280;7220;49.450;11.052;2023-07-20T10:23:00;97971.22;;;23.05;44.76
14273;BME280;7220;49.450;11.052;2023-07-20T10:27:01;97963.59;;;23.00;43.83
14273;BME280;7220;49.450;11.052;2023-07-20T10:31:02;97960.38;;;23.13;44.38
14273;BME280;7220;49.450;11.052;2023-07-20T10:35:12;97962.97;;;23.40;43.46
14273;BME280;7220;49.450;11.052;2023-07-20T10:39:30;97956.84;;;23.21;42.58
14273;BME280;7220;49.450;11.052;2023-07-20T10:43:31;97957.16;;;23.10;43.54
14273;BME280;7220;49.450;11.052;2023-07-20T10:47:45;97950.78;;;23.19;42.31
14273;BME280;7220;49.450;11.052;2023-07-20T10:51:47;97947.88;;;23.37;42.52
14273;BME280;7220;49.450;11.052;2023-07-20T10:55:48;97935.31;;;23.53;42.06
14273;BME280;7220;49.450;11.052;2023-07-20T10:59:50;97928.28;;;23.91;41.41
14273;BME280;7220;49.450;11.052;2023-07-20T11:03:57;97934.81;;;24.22;39.71
14273;BME280;7220;49.450;11.052;2023-07-20T11:07:58;97935.22;;;24.10;38.89
14273;BME280;7220;49.450;11.052;2023-07-20T11:12:15;97934.06;;;23.88;39.37
14273;BME280;7220;49.450;11.052;2023-07-20T11:16:16;97921.31;;;23.97;38.77
14273;BME280;7220;49.450;11.052;2023-07-20T11:20:17;97919.88;;;24.26;37.15
14273;BME280;7220;49.450;11.052;2023-07-20T11:24:17;97916.91;;;25.90;35.34
14273;BME280;7220;49.450;11.052;2023-07-20T11:28:17;97918.72;;;25.07;37.31
14273;BME280;7220;49.450;11.052;2023-07-20T11:32:22;97915.22;;;26.71;34.08
14273;BME280;7220;49.450;11.052;2023-07-20T11:36:22;97904.09;;;27.94;32.34
14273;BME280;7220;49.450;11.052;2023-07-20T11:40:23;97909.75;;;28.70;30.85
14273;BME280;7220;49.450;11.052;2023-07-20T11:44:26;97902.44;;;29.31;29.97
14273;BME280;7220;49.450;11.052;2023-07-20T11:48:27;97895.50;;;29.68;29.96
14273;BME280;7220;49.450;11.052;2023-07-20T11:52:27;97898.25;;;29.68;28.53
14273;BME280;7220;49.450;11.052;2023-07-20T11:56:28;97889.16;;;29.95;28.76
14273;BME280;7220;49.450;11.052;2023-07-20T12:00:28;97887.28;;;29.95;27.30
14273;BME280;7220;49.450;11.052;2023-07-20T12:04:31;97889.56;;;29.98;24.90
14273;BME280;7220;49.450;11.052;2023-07-20T12:08:32;97869.13;;;29.81;25.98
14273;BME280;7220;49.450;11.052;2023-07-20T12:12:34;97858.19;;;29.94;26.20
14273;BME280;7220;49.450;11.052;2023-07-20T12:16:37;97869.34;;;30.51;24.71
14273;BME280;7220;49.450;11.052;2023-07-20T12:20:38;97870.16;;;30.06;25.30
14273;BME280;7220;49.450;11.052;2023-07-20T12:24:38;97848.94;;;30.41;23.15
14273;BME280;7220;49.450;11.052;2023-07-20T12:28:40;97850.06;;;29.54;24.66
14273;BME280;7220;49.450;11.052;2023-07-20T12:32:43;97859.47;;;29.78;24.72
14273;BME280;7220;49.450;11.052;2023-07-20T12:36:44;97856.78;;;30.76;24.55
14273;BME280;7220;49.450;11.052;2023-07-20T12:40:44;97848.81;;;30.67;24.65
14273;BME280;7220;49.450;11.052;2023-07-20T12:44:44;97843.84;;;30.44;24.30
14273;BME280;7220;49.450;11.052;2023-07-20T12:48:45;97839.84;;;30.01;24.72
14273;BME280;7220;49.450;11.052;2023-07-20T12:52:46;97852.25;;;30.56;24.70
14273;BME280;7220;49.450;11.052;2023-07-20T12:56:46;97840.09;;;29.80;25.00
14273;BME280;7220;49.450;11.052;2023-07-20T13:00:46;97831.25;;;29.78;25.19
14273;BME280;7220;49.450;11.052;2023-07-20T13:04:47;97849.72;;;30.48;24.36
14273;BME280;7220;49.450;11.052;2023-07-20T13:08:47;97833.22;;;30.61;23.55
14273;BME280;7220;49.450;11.052;2023-07-20T13:12:47;97838.75;;;30.55;23.82
14273;BME280;7220;49.450;11.052;2023-07-20T13:16:48;97839.34;;;29.32;24.61
14273;BME280;7220;49.450;11.052;2023-07-20T13:20:48;97837.06;;;28.27;27.27
14273;BME280;7220;49.450;11.052;2023-07-20T13:24:48;97814.28;;;29.22;26.74
14273;BME280;7220;49.450;11.052;2023-07-20T13:28:49;97821.09;;;30.44;26.12
14273;BME280;7220;49.450;11.052;2023-07-20T13:32:49;97814.63;;;30.95;25.47
14273;BME280;7220;49.450;11.052;2023-07-20T13:36:49;97809.84;;;30.20;25.89
14273;BME280;7220;49.450;11.052;2023-07-20T13:40:50;97809.56;;;30.67;25.47
14273;BME280;7220;49.450;11.052;2023-07-20T13:44:50;97807.31;;;31.40;23.49
14273;BME280;7220;49.450;11.052;2023-07-20T18:34:06;97719.69;;;23.88;38.96
14273;BME280;7220;49.450;11.052;2023-07-20T18:38:06;97720.75;;;23.47;38.27
14273;BME280;7220;49.450;11.052;2023-07-20T18:42:06;97717.06;;;23.32;38.50
14273;BME280;7220;49.450;11.052;2023-07-20T18:46:07;97717.09;;;23.15;38.72
14273;BME280;7220;49.450;11.052;2023-07-20T18:50:07;97722.06;;;23.04;38.45
14273;BME280;7220;49.450;11.052;2023-07-20T18:54:11;97720.91;;;22.98;38.66
14273;BME280;7220;49.450;11.052;2023-07-20T18:58:11;97738.69;;;22.92;39.19
14273;BME280;7220;49.450;11.052;2023-07-20T19:02:11;97720.56;;;22.84;39.33
14273;BME280;7220;49.450;11.052;2023-07-20T19:06:12;97727.88;;;22.76;39.98
14273;BME280;7220;49.450;11.052;2023-07-20T19:10:14;97731.09;;;22.71;39.70
14273;BME280;7220;49.450;11.052;2023-07-20T19:14:14;97730.28;;;22.62;39.73
14273;BME280;7220;49.450;11.052;2023-07-20T19:18:15;97735.34;;;22.57;40.15
14273;BME280;7220;49.450;11.052;2023-07-20T19:22:15;97741.44;;;22.51;40.50
14273;BME280;7220;49.450;11.052;2023-07-20T19:26:16;97753.16;;;22.43;40.57
14273;BME280;7220;49.450;11.052;2023-07-20T19:30:16;97751.41;;;22.34;41.33
14273;BME280;7220;49.450;11.052;2023-07-20T19:34:16;97754.13;;;22.26;41.16
14273;BME280;7220;49.450;11.052;2023-07-20T19:38:24;97755.13;;;22.16;41.52
14273;BME280;7220;49.450;11.052;2023-07-20T19:42:25;97750.53;;;22.09;41.94
14273;BME280;7220;49.450;11.052;2023-07-20T19:46:25;97761.84;;;22.04;42.19
14273;BME280;7220;49.450;11.052;2023-07-20T19:50:26;97771.50;;;22.06;42.21
14273;BME280;7220;49.450;11.052;2023-07-20T19:54:26;97762.19;;;22.01;42.05
14273;BME280;7220;49.450;11.052;2023-07-20T19:58:27;97765.19;;;21.89;42.79
14273;BME280;7220;49.450;11.052;2023-07-20T20:02:28;97777.50;;;21.84;42.96
14273;BME280;7220;49.450;11.052;2023-07-20T20:06:28;97780.38;;;21.74;43.34
14273;BME280;7220;49.450;11.052;2023-07-20T20:10:30;97775.31;;;21.71;43.58
14273;BME280;7220;49.450;11.052;2023-07-20T20:14:30;97786.44;;;21.68;43.38
14273;BME280;7220;49.450;11.052;2023-07-20T20:18:31;97777.19;;;21.79;43.27
14273;BME280;7220;49.450;11.052;2023-07-20T20:22:32;97783.22;;;21.64;43.93
14273;BME280;7220;49.450;11.052;2023-07-20T20:26:32;97779.50;;;21.65;43.94
14273;BME280;7220;49.450;11.052;2023-07-20T20:30:36;97778.81;;;21.63;43.89
14273;BME280;7220;49.450;11.052;2023-07-20T20:34:37;97763.06;;;21.58;43.80
14273;BME280;7220;49.450;11.052;2023-07-20T20:38:37;97771.47;;;21.55;44.15
14273;BME280;7220;49.450;11.052;2023-07-20T20:42:38;97768.25;;;21.52;44.16
14273;BME280;7220;49.450;11.052;2023-07-20T20:46:38;97768.25;;;21.52;43.88
14273;BME280;7220;49.450;11.052;2023-07-20T20:50:39;97769.44;;;21.49;44.54
14273;BME280;7220;49.450;11.052;2023-07-20T20:54:46;97773.31;;;21.47;44.36
14273;BME280;7220;49.450;11.052;2023-07-20T20:58:47;97767.19;;;21.44;44.35
14273;BME280;7220;49.450;11.052;2023-07-20T21:02:52;97780.19;;;21.41;45.01
14273;BME280;7220;49.450;11.052;2023-07-20T21:06:52;97778.66;;;21.38;44.89
14273;BME280;7220;49.450;11.052;2023-07-20T21:10:52;97771.56;;;21.37;44.81
14273;BME280;7220;49.450;11.052;2023-07-20T21:14:53;97773.28;;;21.38;44.55
14273;BME280;7220;49.450;11.052;2023-07-20T21:18:53;97772.22;;;21.31;44.71
14273;BME280;7220;49.450;11.052;2023-07-20T21:22:54;97775.47;;;21.08;45.54
14273;BME280;7220;49.450;11.052;2023-07-20T21:26:54;97759.50;;;21.15;45.77
14273;BME280;7220;49.450;11.052;2023-07-20T21:31:06;97765.91;;;21.14;45.88
14273;BME280;7220;49.450;11.052;2023-07-20T21:35:06;97780.50;;;21.03;46.06
14273;BME280;7220;49.450;11.052;2023-07-20T21:39:07;97762.72;;;20.92;46.88
14273;BME280;7220;49.450;11.052;2023-07-20T21:43:07;97759.47;;;20.89;46.74
14273;BME280;7220;49.450;11.052;2023-07-20T21:47:08;97760.41;;;20.98;46.32
14273;BME280;7220;49.450;11.052;2023-07-20T21:51:08;97763.13;;;20.79;46.77
14273;BME280;7220;49.450;11.052;2023-07-20T21:55:09;97767.59;;;20.71;47.50
14273;BME280;7220;49.450;11.052;2023-07-20T21:59:09;97764.13;;;20.60;47.22
14273;BME280;7220;49.450;11.052;2023-07-20T22:03:09;97764.66;;;20.64;47.13
14273;BME280;7220;49.450;11.052;2023-07-20T22:07:10;97757.38;;;20.56;47.47
14273;BME280;7220;49.450;11.052;2023-07-20T22:11:19;97745.50;;;20.49;47.43
14273;BME280;7220;49.450;11.052;2023-07-20T22:15:19;97760.16;;;20.46;47.75
14273;BME280;7220;49.450;11.052;2023-07-20T22:19:20;97768.03;;;20.40;48.41
14273;BME280;7220;49.450;11.052;2023-07-20T22:23:20;97770.38;;;20.35;48.42
14273;BME280;7220;49.450;11.052;2023-07-20T22:27:21;97773.81;;;20.27;49.00
14273;BME280;7220;49.450;11.052;2023-07-20T22:31:22;97769.75;;;20.23;48.80
14273;BME280;7220;49.450;11.052;2023-07-20T22:35:22;97762.25;;;20.16;49.16
14273;BME280;7220;49.450;11.052;2023-07-20T22:39:22;97757.84;;;20.15;49.06
14273;BME280;7220;49.450;11.052;2023-07-20T22:43:23;97761.56;;;20.14;49.49
14273;BME280;7220;49.450;11.052;2023-07-20T22:47:25;97756.94;;;20.07;49.65
14273;BME280;7220;49.450;11.052;2023-07-20T22:51:25;97768.03;;;20.04;50.17
14273;BME280;7220;49.450;11.052;2023-07-20T22:55:25;97753.47;;;19.96;50.46
14273;BME280;7220;49.450;11.052;2023-07-20T22:59:26;97754.22;;;19.89;50.93
14273;BME280;7220;49.450;11.052;2023-07-20T23:03:28;97752.56;;;19.78;51.66
14273;BME280;7220;49.450;11.052;2023-07-20T23:07:28;97752.03;;;19.74;51.71
14273;BME280;7220;49.450;11.052;2023-07-20T23:11:28;97751.63;;;19.69;52.31
14273;BME280;7220;49.450;11.052;2023-07-20T23:15:29;97755.75;;;19.63;52.92
14273;BME280;7220;49.450;11.052;2023-07-20T23:19:29;97748.16;;;19.59;53.02
14273;BME280;7220;49.450;11.052;2023-07-20T23:23:30;97753.69;;;19.57;53.08
14273;BME280;7220;49.450;11.052;2023-07-20T23:27:31;97761.38;;;19.52;53.95
14273;BME280;7220;49.450;11.052;2023-07-20T23:31:32;97757.59;;;19.45;54.23
14273;BME280;7220;49.450;11.052;2023-07-20T23:35:32;97754.09;;;19.34;54.42
14273;BME280;7220;49.450;11.052;2023-07-20T23:39:36;97754.84;;;19.27;55.10
14273;BME280;7220;49.450;11.052;2023-07-20T23:43:37;97749.44;;;19.27;55.04
14273;BME280;7220;49.450;11.052;2023-07-20T23:47:37;97756.28;;;19.21;54.94
14273;BME280;7220;49.450;11.052;2023-07-20T23:51:38;97750.63;;;19.14;55.08
14273;BME280;7220;49.450;11.052;2023-07-20T23:55:38;97752.91;;;19.09;55.84
14273;BME280;7220;49.450;11.052;2023-07-20T23:59:38;97749.22;;;19.10;56.26
